sensor_id;sensor_type;location;lat;lon;timestamp;pressure;altitude;pressure_sealevel;temperature;humidity
84267;BME280;74414;51.098;13.716;2023-12-28T00:01:14;99776.50;;;5.62;66.91
84267;BME280;74414;51.098;13.716;2023-12-28T00:03:40;99775.03;;;5.64;66.96
84267;BME280;74414;51.098;13.716;2023-12-28T00:06:06;99757.97;;;5.59;67.12
84267;BME280;74414;51.098;13.716;2023-12-28T00:08:31;99744.59;;;5.57;66.90
84267;BME280;74414;51.098;13.716;2023-12-28T00:10:57;99755.44;;;5.53;67.02
84267;BME280;74414;51.098;13.716;2023-12-28T00:13:23;99743.97;;;5.51;66.95
84267;BME280;74414;51.098;13.716;2023-12-28T00:15:48;99733.00;;;5.51;66.91
84267;BME280;74414;51.098;13.716;2023-12-28T00:18:13;99749.34;;;5.48;66.69
84267;BME280;74414;51.098;13.716;2023-12-28T00:20:39;99745.59;;;5.52;66.51
84267;BME280;74414;51.098;13.716;2023-12-28T00:23:04;99745.72;;;5.56;66.26
84267;BME280;74414;51.098;13.716;2023-12-28T00:25:31;99730.63;;;5.62;65.66
84267;BME280;74414;51.098;13.716;2023-12-28T00:27:57;99724.44;;;5.65;65.66
84267;BME280;74414;51.098;13.716;2023-12-28T00:30:22;99712.13;;;5.83;64.56
84267;BME280;74414;51.098;13.716;2023-12-28T00:32:49;99713.47;;;5.77;65.15
84267;BME280;74414;51.098;13.716;2023-12-28T00:35:14;99704.69;;;5.84;64.75
84267;BME280;74414;51.098;13.716;2023-12-28T00:37:39;99701.72;;;6.01;64.13
84267;BME280;74414;51.098;13.716;2023-12-28T00:40:05;99697.44;;;6.15;63.46
84267;BME280;74414;51.098;13.716;2023-12-28T00:42:31;99699.53;;;6.18;62.82
84267;BME280;74414;51.098;13.716;2023-12-28T00:44:56;99702.28;;;6.06;62.97
84267;BME280;74414;51.098;13.716;2023-12-28T00:47:21;99703.75;;;6.04;63.39
84267;BME280;74414;51.098;13.716;2023-12-28T00:49:47;99697.69;;;5.98;63.04
84267;BME280;74414;51.098;13.716;2023-12-28T00:52:13;99684.53;;;5.92;63.47
84267;BME280;74414;51.098;13.716;2023-12-28T00:54:38;99680.03;;;5.75;63.78
84267;BME280;74414;51.098;13.716;2023-12-28T00:57:04;99681.19;;;5.62;64.69
84267;BME280;74414;51.098;13.716;2023-12-28T00:59:29;99685.50;;;5.63;63.93
84267;BME280;74414;51.098;13.716;2023-12-28T01:01:57;99692.63;;;5.64;63.30
84267;BME280;74414;51.098;13.716;2023-12-28T01:04:23;99688.16;;;5.72;62.86
84267;BME280;74414;51.098;13.716;2023-12-28T01:06:49;99674.53;;;5.75;62.69
84267;BME280;74414;51.098;13.716;2023-12-28T01:09:15;99680.97;;;5.55;64.13
84267;BME280;74414;51.098;13.716;2023-12-28T01:11:40;99679.13;;;5.47;63.55
84267;BME280;74414;51.098;13.716;2023-12-28T01:14:06;99672.22;;;5.41;63.83
84267;BME280;74414;51.098;13.716;2023-12-28T01:16:32;99679.78;;;5.32;64.31
84267;BME280;74414;51.098;13.716;2023-12-28T01:18:58;99690.06;;;5.35;62.69
84267;BME280;74414;51.098;13.716;2023-12-28T01:21:23;99688.25;;;5.63;61.82
84267;BME280;74414;51.098;13.716;2023-12-28T01:23:50;99698.84;;;5.85;60.47
84267;BME280;74414;51.098;13.716;2023-12-28T01:26:16;99699.78;;;6.01;60.15
84267;BME280;74414;51.098;13.716;2023-12-28T01:28:44;99693.13;;;6.02;59.79
84267;BME280;74414;51.098;13.716;2023-12-28T01:31:10;99701.16;;;5.95;60.34
84267;BME280;74414;51.098;13.716;2023-12-28T01:33:35;99698.59;;;5.78;61.30
84267;BME280;74414;51.098;13.716;2023-12-28T01:36:01;99695.84;;;5.66;61.03
84267;BME280;74414;51.098;13.716;2023-12-28T01:38:27;99696.97;;;5.77;59.95
84267;BME280;74414;51.098;13.716;2023-12-28T01:40:52;99685.53;;;5.75;60.02
84267;BME280;74414;51.098;13.716;2023-12-28T01:43:18;99683.34;;;5.81;59.41
84267;BME280;74414;51.098;13.716;2023-12-28T01:45:43;99678.13;;;5.88;59.28
84267;BME280;74414;51.098;13.716;2023-12-28T01:48:08;99666.09;;;6.04;57.86
84267;BME280;74414;51.098;13.716;2023-12-28T01:50:35;99667.69;;;6.05;57.99
84267;BME280;74414;51.098;13.716;2023-12-28T01:53:00;99673.56;;;5.92;57.29
84267;BME280;74414;51.098;13.716;2023-12-28T01:55:27;99661.19;;;5.86;57.88
84267;BME280;74414;51.098;13.716;2023-12-28T01:57:54;99670.31;;;6.02;57.13
84267;BME280;74414;51.098;13.716;2023-12-28T02:00:21;99665.59;;;6.26;54.86
84267;BME280;74414;51.098;13.716;2023-12-28T02:02:47;99664.00;;;6.25;55.70
84267;BME280;74414;51.098;13.716;2023-12-28T02:05:13;99663.53;;;6.11;56.52
84267;BME280;74414;51.098;13.716;2023-12-28T02:07:39;99663.81;;;5.94;56.21
84267;BME280;74414;51.098;13.716;2023-12-28T02:10:06;99650.19;;;5.86;57.36
84267;BME280;74414;51.098;13.716;2023-12-28T02:12:31;99651.88;;;6.14;54.21
84267;BME280;74414;51.098;13.716;2023-12-28T02:14:57;99653.00;;;6.25;56.10
84267;BME280;74414;51.098;13.716;2023-12-28T02:17:28;99658.19;;;6.03;57.50
84267;BME280;74414;51.098;13.716;2023-12-28T02:19:56;99660.69;;;5.72;57.29
84267;BME280;74414;51.098;13.716;2023-12-28T02:22:26;99662.19;;;5.81;56.20
84267;BME280;74414;51.098;13.716;2023-12-28T02:25:05;99664.81;;;5.78;55.56
84267;BME280;74414;51.098;13.716;2023-12-28T02:27:34;99675.09;;;5.81;53.22
84267;BME280;74414;51.098;13.716;2023-12-28T02:30:01;99665.28;;;7.11;47.93
84267;BME280;74414;51.098;13.716;2023-12-28T02:32:38;99671.06;;;7.37;48.24
84267;BME280;74414;51.098;13.716;2023-12-28T02:35:17;99661.69;;;7.38;47.67
84267;BME280;74414;51.098;13.716;2023-12-28T02:37:44;99660.88;;;7.53;47.90
84267;BME280;74414;51.098;13.716;2023-12-28T02:40:14;99655.00;;;7.39;46.43
84267;BME280;74414;51.098;13.716;2023-12-28T02:42:41;99654.56;;;7.68;47.46
84267;BME280;74414;51.098;13.716;2023-12-28T02:45:07;99644.44;;;7.41;48.32
84267;BME280;74414;51.098;13.716;2023-12-28T02:47:32;99648.56;;;7.97;43.94
84267;BME280;74414;51.098;13.716;2023-12-28T02:49:58;99647.19;;;8.22;42.99
84267;BME280;74414;51.098;13.716;2023-12-28T02:52:24;99639.53;;;8.16;45.25
84267;BME280;74414;51.098;13.716;2023-12-28T02:54:50;99646.19;;;7.96;46.09
84267;BME280;74414;51.098;13.716;2023-12-28T02:57:15;99650.91;;;7.80;47.38
84267;BME280;74414;51.098;13.716;2023-12-28T02:59:46;99652.97;;;7.67;45.98
84267;BME280;74414;51.098;13.716;2023-12-28T03:02:11;99650.44;;;7.93;44.54
84267;BME280;74414;51.098;13.716;2023-12-28T03:04:37;99652.06;;;7.79;45.67
84267;BME280;74414;51.098;13.716;2023-12-28T03:07:02;99650.22;;;7.67;46.34
84267;BME280;74414;51.098;13.716;2023-12-28T03:09:27;99649.84;;;7.53;46.60
84267;BME280;74414;51.098;13.716;2023-12-28T03:11:53;99650.66;;;7.38;48.58
84267;BME280;74414;51.098;13.716;2023-12-28T03:14:19;99654.19;;;7.23;48.01
84267;BME280;74414;51.098;13.716;2023-12-28T03:16:46;99668.47;;;7.13;49.46
84267;BME280;74414;51.098;13.716;2023-12-28T03:19:12;99670.19;;;6.90;50.33
84267;BME280;74414;51.098;13.716;2023-12-28T03:21:40;99675.94;;;6.85;48.89
84267;BME280;74414;51.098;13.716;2023-12-28T03:24:06;99684.47;;;6.80;50.65
84267;BME280;74414;51.098;13.716;2023-12-28T03:26:31;99677.50;;;6.70;49.62
84267;BME280;74414;51.098;13.716;2023-12-28T03:28:57;99687.22;;;6.80;50.31
84267;BME280;74414;51.098;13.716;2023-12-28T03:31:22;99684.66;;;6.87;49.37
84267;BME280;74414;51.098;13.716;2023-12-28T03:33:48;99693.63;;;6.84;49.94
84267;BME280;74414;51.098;13.716;2023-12-28T03:36:20;99691.13;;;7.22;47.22
84267;BME280;74414;51.098;13.716;2023-12-28T03:38:46;99702.03;;;7.46;48.90
84267;BME280;74414;51.098;13.716;2023-12-28T03:41:18;99709.28;;;7.23;49.36
84267;BME280;74414;51.098;13.716;2023-12-28T03:43:47;99703.31;;;7.21;48.63
84267;BME280;74414;51.098;13.716;2023-12-28T03:46:13;99697.47;;;7.22;46.82
84267;BME280;74414;51.098;13.716;2023-12-28T03:48:39;99692.16;;;7.45;47.38
84267;BME280;74414;51.098;13.716;2023-12-28T03:51:05;99700.97;;;7.66;49.11
84267;BME280;74414;51.098;13.716;2023-12-28T03:53:31;99694.66;;;7.81;46.39
84267;BME280;74414;51.098;13.716;2023-12-28T03:55:58;99690.38;;;7.84;47.75
84267;BME280;74414;51.098;13.716;2023-12-28T03:58:23;99688.78;;;7.83;46.15
84267;BME280;74414;51.098;13.716;2023-12-28T04:00:48;99693.31;;;7.91;45.62
84267;BME280;74414;51.098;13.716;2023-12-28T04:03:14;99704.31;;;8.06;45.25
84267;BME280;74414;51.098;13.716;2023-12-28T04:05:39;99708.53;;;8.51;42.68
84267;BME280;74414;51.098;13.716;2023-12-28T04:08:05;99704.13;;;8.65;43.70
84267;BME280;74414;51.098;13.716;2023-12-28T04:10:32;99692.28;;;8.84;42.53
84267;BME280;74414;51.098;13.716;2023-12-28T04:12:58;99693.13;;;9.26;41.19
84267;BME280;74414;51.098;13.716;2023-12-28T04:15:24;99695.28;;;9.36;41.45
84267;BME280;74414;51.098;13.716;2023-12-28T04:17:49;99705.59;;;9.39;41.72
84267;BME280;74414;51.098;13.716;2023-12-28T04:20:15;99700.75;;;9.33;42.62
84267;BME280;74414;51.098;13.716;2023-12-28T04:22:40;99696.03;;;9.14;42.96
84267;BME280;74414;51.098;13.716;2023-12-28T04:25:06;99704.41;;;9.18;42.02
84267;BME280;74414;51.098;13.716;2023-12-28T04:27:31;99700.09;;;9.20;42.50
84267;BME280;74414;51.098;13.716;2023-12-28T04:29:57;99690.59;;;9.18;42.83
84267;BME280;74414;51.098;13.716;2023-12-28T04:32:22;99688.28;;;9.42;41.08
84267;BME280;74414;51.098;13.716;2023-12-28T04:34:49;99675.78;;;9.48;42.42
84267;BME280;74414;51.098;13.716;2023-12-28T04:37:14;99679.56;;;9.40;42.39
84267;BME280;74414;51.098;13.716;2023-12-28T04:39:40;99693.34;;;9.37;42.79
84267;BME280;74414;51.098;13.716;2023-12-28T04:42:05;99692.59;;;9.40;42.80
84267;BME280;74414;51.098;13.716;2023-12-28T04:44:31;99693.69;;;9.35;43.27
84267;BME280;74414;51.098;13.716;2023-12-28T04:46:56;99687.53;;;9.23;44.32
84267;BME280;74414;51.098;13.716;2023-12-28T04:49:21;99694.66;;;9.04;44.89
84267;BME280;74414;51.098;13.716;2023-12-28T04:51:46;99675.56;;;8.96;45.51
84267;BME280;74414;51.098;13.716;2023-12-28T04:54:12;99671.94;;;8.92;45.89
84267;BME280;74414;51.098;13.716;2023-12-28T04:56:37;99684.00;;;8.84;46.90
84267;BME280;74414;51.098;13.716;2023-12-28T04:59:03;99689.09;;;8.82;46.29
84267;BME280;74414;51.098;13.716;2023-12-28T05:01:28;99668.25;;;8.84;46.58
84267;BME280;74414;51.098;13.716;2023-12-28T05:03:56;99684.06;;;8.87;45.92
84267;BME280;74414;51.098;13.716;2023-12-28T05:06:22;99680.53;;;8.87;46.75
84267;BME280;74414;51.098;13.716;2023-12-28T05:08:55;99665.97;;;8.90;46.70
84267;BME280;74414;51.098;13.716;2023-12-28T05:11:20;99680.97;;;8.89;46.13
84267;BME280;74414;51.098;13.716;2023-12-28T05:13:45;99685.00;;;8.95;45.88
84267;BME280;74414;51.098;13.716;2023-12-28T05:16:11;99693.28;;;8.95;46.81
84267;BME280;74414;51.098;13.716;2023-12-28T05:18:36;99693.91;;;8.85;49.33
84267;BME280;74414;51.098;13.716;2023-12-28T05:21:02;99707.47;;;8.74;49.26
84267;BME280;74414;51.098;13.716;2023-12-28T05:23:27;99712.53;;;8.72;48.77
84267;BME280;74414;51.098;13.716;2023-12-28T05:25:56;99724.97;;;8.82;48.50
84267;BME280;74414;51.098;13.716;2023-12-28T05:28:21;99720.19;;;8.79;50.55
84267;BME280;74414;51.098;13.716;2023-12-28T05:30:46;99720.13;;;8.75;50.71
84267;BME280;74414;51.098;13.716;2023-12-28T05:33:11;99729.41;;;8.67;50.75
84267;BME280;74414;51.098;13.716;2023-12-28T05:35:37;99729.03;;;8.69;51.22
84267;BME280;74414;51.098;13.716;2023-12-28T05:38:02;99732.81;;;8.61;52.61
84267;BME280;74414;51.098;13.716;2023-12-28T05:40:27;99730.56;;;8.66;52.60
84267;BME280;74414;51.098;13.716;2023-12-28T05:42:53;99739.50;;;8.60;52.06
84267;BME280;74414;51.098;13.716;2023-12-28T05:45:18;99731.06;;;8.72;50.68
84267;BME280;74414;51.098;13.716;2023-12-28T05:47:44;99736.75;;;8.79;51.02
84267;BME280;74414;51.098;13.716;2023-12-28T05:50:09;99746.25;;;8.81;52.04
84267;BME280;74414;51.098;13.716;2023-12-28T05:52:35;99758.34;;;8.92;51.87
84267;BME280;74414;51.098;13.716;2023-12-28T05:55:00;99755.66;;;8.96;50.38
84267;BME280;74414;51.098;13.716;2023-12-28T05:57:25;99765.53;;;8.97;52.00
84267;BME280;74414;51.098;13.716;2023-12-28T05:59:55;99763.94;;;8.96;52.40
84267;BME280;74414;51.098;13.716;2023-12-28T06:02:20;99764.81;;;9.00;51.37
84267;BME280;74414;51.098;13.716;2023-12-28T06:04:45;99770.22;;;9.12;51.25
84267;BME280;74414;51.098;13.716;2023-12-28T06:07:11;99764.81;;;9.19;51.49
84267;BME280;74414;51.098;13.716;2023-12-28T06:09:36;99771.66;;;9.25;51.57
84267;BME280;74414;51.098;13.716;2023-12-28T06:12:04;99781.69;;;9.52;50.18
84267;BME280;74414;51.098;13.716;2023-12-28T06:14:29;99782.97;;;9.58;49.95
84267;BME280;74414;51.098;13.716;2023-12-28T06:16:55;99775.69;;;9.69;50.38
84267;BME280;74414;51.098;13.716;2023-12-28T06:19:20;99771.72;;;9.70;50.13
84267;BME280;74414;51.098;13.716;2023-12-28T06:21:47;99786.00;;;9.72;49.78
84267;BME280;74414;51.098;13.716;2023-12-28T06:24:13;99781.44;;;9.83;51.38
84267;BME280;74414;51.098;13.716;2023-12-28T06:26:40;99775.06;;;9.79;50.15
84267;BME280;74414;51.098;13.716;2023-12-28T06:29:05;99769.34;;;9.91;50.30
84267;BME280;74414;51.098;13.716;2023-12-28T06:31:31;99765.00;;;9.90;50.42
84267;BME280;74414;51.098;13.716;2023-12-28T06:34:01;99772.88;;;9.88;50.81
84267;BME280;74414;51.098;13.716;2023-12-28T06:36:26;99764.31;;;9.97;51.00
84267;BME280;74414;51.098;13.716;2023-12-28T06:38:51;99761.16;;;10.18;50.07
84267;BME280;74414;51.098;13.716;2023-12-28T06:41:17;99774.97;;;10.18;50.86
84267;BME280;74414;51.098;13.716;2023-12-28T06:43:42;99767.84;;;10.17;51.17
84267;BME280;74414;51.098;13.716;2023-12-28T06:46:07;99767.16;;;10.23;51.13
84267;BME280;74414;51.098;13.716;2023-12-28T06:48:33;99764.03;;;10.25;51.18
84267;BME280;74414;51.098;13.716;2023-12-28T06:50:58;99766.50;;;10.30;51.85
84267;BME280;74414;51.098;13.716;2023-12-28T06:53:23;99750.63;;;10.27;52.68
84267;BME280;74414;51.098;13.716;2023-12-28T06:55:49;99762.38;;;10.46;52.52
84267;BME280;74414;51.098;13.716;2023-12-28T06:58:14;99765.59;;;10.48;53.09
84267;BME280;74414;51.098;13.716;2023-12-28T07:00:39;99762.06;;;10.51;53.29
84267;BME280;74414;51.098;13.716;2023-12-28T07:03:06;99770.78;;;10.53;53.08
84267;BME280;74414;51.098;13.716;2023-12-28T07:05:31;99780.53;;;10.44;54.13
84267;BME280;74414;51.098;13.716;2023-12-28T07:07:57;99773.72;;;10.38;53.88
84267;BME280;74414;51.098;13.716;2023-12-28T07:10:22;99786.44;;;10.42;53.97
84267;BME280;74414;51.098;13.716;2023-12-28T07:12:47;99795.84;;;10.38;54.13
84267;BME280;74414;51.098;13.716;2023-12-28T07:15:13;99792.13;;;10.27;54.69
84267;BME280;74414;51.098;13.716;2023-12-28T07:17:40;99808.41;;;10.32;54.40
84267;BME280;74414;51.098;13.716;2023-12-28T07:20:06;99802.09;;;10.31;54.93
84267;BME280;74414;51.098;13.716;2023-12-28T07:22:31;99788.19;;;10.28;54.27
84267;BME280;74414;51.098;13.716;2023-12-28T07:24:56;99796.41;;;10.24;54.86
84267;BME280;74414;51.098;13.716;2023-12-28T07:27:22;99810.16;;;10.17;54.85
84267;BME280;74414;51.098;13.716;2023-12-28T07:29:47;99793.16;;;10.19;54.11
84267;BME280;74414;51.098;13.716;2023-12-28T07:32:12;99800.19;;;10.13;54.83
84267;BME280;74414;51.098;13.716;2023-12-28T07:34:39;99806.31;;;10.02;55.36
84267;BME280;74414;51.098;13.716;2023-12-28T07:37:04;99822.47;;;10.00;54.91
84267;BME280;74414;51.098;13.716;2023-12-28T07:39:30;99817.22;;;9.95;55.54
84267;BME280;74414;51.098;13.716;2023-12-28T07:41:55;99813.25;;;9.93;55.40
84267;BME280;74414;51.098;13.716;2023-12-28T07:44:21;99811.66;;;9.92;55.51
84267;BME280;74414;51.098;13.716;2023-12-28T07:46:46;99802.09;;;9.89;55.61
84267;BME280;74414;51.098;13.716;2023-12-28T07:49:11;99808.44;;;9.90;55.41
84267;BME280;74414;51.098;13.716;2023-12-28T07:51:37;99806.91;;;9.92;55.48
84267;BME280;74414;51.098;13.716;2023-12-28T07:54:02;99808.66;;;10.00;55.32
84267;BME280;74414;51.098;13.716;2023-12-28T07:56:27;99820.16;;;10.02;55.29
84267;BME280;74414;51.098;13.716;2023-12-28T07:58:53;99824.50;;;10.03;55.01
84267;BME280;74414;51.098;13.716;2023-12-28T08:01:18;99820.50;;;10.01;55.45
84267;BME280;74414;51.098;13.716;2023-12-28T08:03:44;99827.59;;;9.98;55.80
84267;BME280;74414;51.098;13.716;2023-12-28T08:06:09;99818.03;;;9.96;55.57
84267;BME280;74414;51.098;13.716;2023-12-28T08:08:37;99821.63;;;9.96;55.64
84267;BME280;74414;51.098;13.716;2023-12-28T08:11:03;99840.81;;;9.89;56.49
84267;BME280;74414;51.098;13.716;2023-12-28T08:13:29;99839.38;;;9.95;55.79
84267;BME280;74414;51.098;13.716;2023-12-28T08:15:54;99847.72;;;9.99;55.79
84267;BME280;74414;51.098;13.716;2023-12-28T08:18:19;99844.44;;;10.13;55.17
84267;BME280;74414;51.098;13.716;2023-12-28T08:20:45;99847.72;;;10.18;55.04
84267;BME280;74414;51.098;13.716;2023-12-28T08:23:11;99860.50;;;10.26;54.76
84267;BME280;74414;51.098;13.716;2023-12-28T08:25:36;99863.34;;;10.30;55.51
84267;BME280;74414;51.098;13.716;2023-12-28T08:28:01;99856.25;;;10.32;55.29
84267;BME280;74414;51.098;13.716;2023-12-28T08:30:27;99860.28;;;10.35;54.98
84267;BME280;74414;51.098;13.716;2023-12-28T08:32:53;99859.19;;;10.39;55.05
84267;BME280;74414;51.098;13.716;2023-12-28T08:35:18;99853.97;;;10.38;55.26
84267;BME280;74414;51.098;13.716;2023-12-28T08:37:43;99857.50;;;10.35;55.42
84267;BME280;74414;51.098;13.716;2023-12-28T08:40:09;99848.28;;;10.27;55.82
84267;BME280;74414;51.098;13.716;2023-12-28T08:42:35;99853.81;;;10.27;56.15
84267;BME280;74414;51.098;13.716;2023-12-28T08:45:00;99856.63;;;10.31;55.99
84267;BME280;74414;51.098;13.716;2023-12-28T08:47:26;99869.28;;;10.32;56.33
84267;BME280;74414;51.098;13.716;2023-12-28T08:49:52;99870.91;;;10.33;56.19
84267;BME280;74414;51.098;13.716;2023-12-28T08:52:17;99861.38;;;10.30;56.72
84267;BME280;74414;51.098;13.716;2023-12-28T08:54:43;99866.19;;;10.33;56.82
84267;BME280;74414;51.098;13.716;2023-12-28T08:57:09;99865.44;;;10.36;56.68
84267;BME280;74414;51.098;13.716;2023-12-28T08:59:38;99861.56;;;10.41;56.52
84267;BME280;74414;51.098;13.716;2023-12-28T09:02:03;99867.97;;;10.45;57.13
84267;BME280;74414;51.098;13.716;2023-12-28T09:04:28;99884.63;;;10.48;56.83
84267;BME280;74414;51.098;13.716;2023-12-28T09:06:54;99885.13;;;10.54;57.29
84267;BME280;74414;51.098;13.716;2023-12-28T09:09:19;99886.69;;;10.55;57.09
84267;BME280;74414;51.098;13.716;2023-12-28T09:11:44;99881.91;;;10.52;57.49
84267;BME280;74414;51.098;13.716;2023-12-28T09:14:09;99879.97;;;10.52;56.56
84267;BME280;74414;51.098;13.716;2023-12-28T09:16:35;99881.53;;;10.53;56.33
84267;BME280;74414;51.098;13.716;2023-12-28T09:19:00;99870.09;;;10.55;56.14
84267;BME280;74414;51.098;13.716;2023-12-28T09:21:26;99885.59;;;10.59;56.48
84267;BME280;74414;51.098;13.716;2023-12-28T09:23:51;99883.69;;;10.63;56.21
84267;BME280;74414;51.098;13.716;2023-12-28T09:26:17;99895.63;;;10.67;56.28
84267;BME280;74414;51.098;13.716;2023-12-28T09:28:43;99877.16;;;10.75;55.99
84267;BME280;74414;51.098;13.716;2023-12-28T09:31:09;99871.72;;;10.82;56.03
84267;BME280;74414;51.098;13.716;2023-12-28T09:33:34;99872.56;;;10.86;55.85
84267;BME280;74414;51.098;13.716;2023-12-28T09:36:03;99886.13;;;10.91;55.99
84267;BME280;74414;51.098;13.716;2023-12-28T09:38:28;99877.78;;;10.87;56.00
84267;BME280;74414;51.098;13.716;2023-12-28T09:40:54;99876.97;;;10.87;56.20
84267;BME280;74414;51.098;13.716;2023-12-28T09:43:23;99872.56;;;10.86;56.20
84267;BME280;74414;51.098;13.716;2023-12-28T09:45:50;99878.06;;;10.82;56.46
84267;BME280;74414;51.098;13.716;2023-12-28T09:48:16;99870.47;;;10.76;56.66
84267;BME280;74414;51.098;13.716;2023-12-28T09:50:53;99877.16;;;10.75;56.38
84267;BME280;74414;51.098;13.716;2023-12-28T09:53:25;99874.38;;;10.75;56.59
84267;BME280;74414;51.098;13.716;2023-12-28T09:55:51;99878.25;;;10.70;56.65
84267;BME280;74414;51.098;13.716;2023-12-28T09:58:18;99885.22;;;10.61;57.08
84267;BME280;74414;51.098;13.716;2023-12-28T10:00:46;99878.41;;;10.55;57.64
84267;BME280;74414;51.098;13.716;2023-12-28T10:03:19;99878.28;;;10.48;57.51
84267;BME280;74414;51.098;13.716;2023-12-28T10:05:45;99878.59;;;10.43;57.50
84267;BME280;74414;51.098;13.716;2023-12-28T10:08:11;99872.69;;;10.44;57.38
84267;BME280;74414;51.098;13.716;2023-12-28T10:10:38;99871.81;;;10.40;57.54
84267;BME280;74414;51.098;13.716;2023-12-28T10:13:03;99870.25;;;10.39;57.43
84267;BME280;74414;51.098;13.716;2023-12-28T10:15:31;99872.22;;;10.39;57.67
84267;BME280;74414;51.098;13.716;2023-12-28T10:17:56;99876.50;;;10.36;58.11
84267;BME280;74414;51.098;13.716;2023-12-28T10:20:21;99875.63;;;10.32;57.93
84267;BME280;74414;51.098;13.716;2023-12-28T10:22:47;99866.53;;;10.32;57.67
84267;BME280;74414;51.098;13.716;2023-12-28T10:25:12;99866.97;;;10.34;57.59
84267;BME280;74414;51.098;13.716;2023-12-28T10:27:42;99869.38;;;10.35;57.67
84267;BME280;74414;51.098;13.716;2023-12-28T10:30:08;99859.84;;;10.33;58.02
84267;BME280;74414;51.098;13.716;2023-12-28T10:32:35;99863.59;;;10.44;56.87
84267;BME280;74414;51.098;13.716;2023-12-28T10:35:00;99863.59;;;10.44;57.38
84267;BME280;74414;51.098;13.716;2023-12-28T10:37:26;99862.06;;;10.46;57.33
84267;BME280;74414;51.098;13.716;2023-12-28T10:39:53;99869.13;;;10.44;57.21
84267;BME280;74414;51.098;13.716;2023-12-28T10:42:29;99854.84;;;10.42;57.30
84267;BME280;74414;51.098;13.716;2023-12-28T10:45:04;99861.94;;;10.39;57.47
84267;BME280;74414;51.098;13.716;2023-12-28T10:47:37;99873.44;;;10.41;57.24
84267;BME280;74414;51.098;13.716;2023-12-28T10:50:04;99866.34;;;10.44;56.74
84267;BME280;74414;51.098;13.716;2023-12-28T10:52:31;99860.53;;;10.49;56.31
84267;BME280;74414;51.098;13.716;2023-12-28T10:55:14;99866.53;;;10.54;56.36
84267;BME280;74414;51.098;13.716;2023-12-28T10:58:12;99847.66;;;10.60;55.60
84267;BME280;74414;51.098;13.716;2023-12-28T11:00:43;99845.16;;;10.55;55.76
84267;BME280;74414;51.098;13.716;2023-12-28T11:03:18;99845.53;;;10.53;56.39
84267;BME280;74414;51.098;13.716;2023-12-28T11:05:46;99837.63;;;10.52;56.09
84267;BME280;74414;51.098;13.716;2023-12-28T11:08:13;99833.38;;;10.58;56.09
84267;BME280;74414;51.098;13.716;2023-12-28T11:10:40;99842.16;;;10.63;56.16
84267;BME280;74414;51.098;13.716;2023-12-28T11:13:05;99832.00;;;10.71;55.70
84267;BME280;74414;51.098;13.716;2023-12-28T11:15:31;99834.47;;;10.76;55.49
84267;BME280;74414;51.098;13.716;2023-12-28T11:17:57;99844.00;;;10.82;55.32
84267;BME280;74414;51.098;13.716;2023-12-28T11:20:22;99840.63;;;10.92;55.29
84267;BME280;74414;51.098;13.716;2023-12-28T11:22:48;99845.91;;;11.01;54.59
84267;BME280;74414;51.098;13.716;2023-12-28T11:25:18;99833.03;;;11.15;54.37
84267;BME280;74414;51.098;13.716;2023-12-28T11:27:45;99839.94;;;11.28;54.02
84267;BME280;74414;51.098;13.716;2023-12-28T11:30:12;99849.63;;;11.41;53.52
84267;BME280;74414;51.098;13.716;2023-12-28T11:32:38;99854.25;;;11.63;53.60
84267;BME280;74414;51.098;13.716;2023-12-28T11:35:06;99849.75;;;11.81;52.43
84267;BME280;74414;51.098;13.716;2023-12-28T11:37:35;99841.97;;;11.98;51.99
84267;BME280;74414;51.098;13.716;2023-12-28T11:40:10;99841.03;;;12.20;51.25
84267;BME280;74414;51.098;13.716;2023-12-28T11:42:36;99855.91;;;12.41;50.69
84267;BME280;74414;51.098;13.716;2023-12-28T11:45:01;99852.75;;;12.94;50.19
84267;BME280;74414;51.098;13.716;2023-12-28T11:47:26;99852.28;;;13.46;49.70
84267;BME280;74414;51.098;13.716;2023-12-28T11:49:54;99859.72;;;14.31;47.69
84267;BME280;74414;51.098;13.716;2023-12-28T11:52:25;99867.66;;;15.31;44.57
84267;BME280;74414;51.098;13.716;2023-12-28T11:54:51;99854.88;;;15.52;43.90
84267;BME280;74414;51.098;13.716;2023-12-28T11:57:17;99855.53;;;15.84;43.11
84267;BME280;74414;51.098;13.716;2023-12-28T11:59:42;99856.34;;;15.81;42.28
84267;BME280;74414;51.098;13.716;2023-12-28T12:02:08;99868.44;;;15.32;43.63
84267;BME280;74414;51.098;13.716;2023-12-28T12:04:34;99866.91;;;14.85;44.09
84267;BME280;74414;51.098;13.716;2023-12-28T12:07:03;99859.38;;;14.40;45.42
84267;BME280;74414;51.098;13.716;2023-12-28T12:09:29;99866.84;;;14.15;46.15
84267;BME280;74414;51.098;13.716;2023-12-28T12:12:02;99865.84;;;15.97;42.66
84267;BME280;74414;51.098;13.716;2023-12-28T12:14:28;99860.44;;;16.34;41.38
84267;BME280;74414;51.098;13.716;2023-12-28T12:16:54;99853.66;;;15.53;42.66
84267;BME280;74414;51.098;13.716;2023-12-28T12:19:24;99847.81;;;14.63;43.98
84267;BME280;74414;51.098;13.716;2023-12-28T12:21:52;99842.97;;;14.14;45.25
84267;BME280;74414;51.098;13.716;2023-12-28T12:24:18;99843.03;;;14.67;43.99
84267;BME280;74414;51.098;13.716;2023-12-28T12:26:45;99852.56;;;14.27;44.88
84267;BME280;74414;51.098;13.716;2023-12-28T12:29:10;99841.03;;;14.60;44.00
84267;BME280;74414;51.098;13.716;2023-12-28T12:31:36;99836.69;;;14.59;44.94
84267;BME280;74414;51.098;13.716;2023-12-28T12:34:03;99842.41;;;15.77;42.17
84267;BME280;74414;51.098;13.716;2023-12-28T12:36:29;99841.78;;;15.06;42.95
84267;BME280;74414;51.098;13.716;2023-12-28T12:38:54;99835.88;;;14.76;43.98
84267;BME280;74414;51.098;13.716;2023-12-28T12:41:19;99821.53;;;14.85;44.06
84267;BME280;74414;51.098;13.716;2023-12-28T12:43:46;99828.66;;;14.93;43.76
84267;BME280;74414;51.098;13.716;2023-12-28T12:46:11;99833.47;;;14.78;43.63
84267;BME280;74414;51.098;13.716;2023-12-28T12:48:37;99833.47;;;14.78;43.87
84267;BME280;74414;51.098;13.716;2023-12-28T12:51:03;99843.28;;;15.57;42.01